createdAt,value
2022-09-27T00:01:44.020Z,14.30
2022-09-27T00:06:45.806Z,16.40
2022-09-27T00:11:46.900Z,16.60
2022-09-27T00:26:50.833Z,18.30
2022-09-27T00:31:52.601Z,17.70
2022-09-27T00:36:54.777Z,19.30
2022-09-27T00:41:56.377Z,21.10
2022-09-27T00:47:35.279Z,19.10
2022-09-27T00:52:49.454Z,19.40
2022-09-27T00:57:51.756Z,20.80
2022-09-27T01:02:55.454Z,19.50
2022-09-27T01:07:59.875Z,18.60
2022-09-27T01:13:18.709Z,18.70
2022-09-27T01:18:44.990Z,20.00
2022-09-27T01:23:55.161Z,21.60
2022-09-27T01:29:07.090Z,23.60
2022-09-27T01:34:30.094Z,21.80
2022-09-27T01:39:34.100Z,19.10
2022-09-27T01:44:53.961Z,22.90
2022-09-27T01:50:06.684Z,22.90
2022-09-27T01:55:13.368Z,24.20
2022-09-27T02:00:14.479Z,23.40
2022-09-27T02:10:27.732Z,23.20
2022-09-27T02:15:40.939Z,24.80
2022-09-27T02:20:51.482Z,25.30
2022-09-27T02:26:00.650Z,27.30
2022-09-27T02:31:01.828Z,27.60
2022-09-27T02:36:03.618Z,25.40
2022-09-27T02:41:16.500Z,24.10
2022-09-27T02:46:45.232Z,25.00
2022-09-27T02:52:11.053Z,24.80
2022-09-27T02:57:29.831Z,27.90
2022-09-27T03:02:55.951Z,25.10
2022-09-27T03:07:57.634Z,30.10
2022-09-27T03:12:59.205Z,30.10
2022-09-27T03:18:00.831Z,30.40
2022-09-27T03:23:02.419Z,30.20
2022-09-27T03:28:03.653Z,29.30
2022-09-27T03:33:05.058Z,30.40
2022-09-27T03:43:07.699Z,32.20
2022-09-27T03:53:09.785Z,34.20
2022-09-27T04:03:14.022Z,31.90
2022-09-27T04:08:15.236Z,33.20
2022-09-27T04:13:16.346Z,33.20
2022-09-27T04:23:19.902Z,33.80
2022-09-27T04:28:22.359Z,34.10
2022-09-27T04:33:23.450Z,36.20
2022-09-27T04:43:25.540Z,33.30
2022-09-27T04:53:31.575Z,38.40
2022-09-27T04:58:35.692Z,34.50
2022-09-27T05:03:37.216Z,38.10
2022-09-27T05:08:38.538Z,38.60
2022-09-27T05:13:39.622Z,37.40
2022-09-27T05:23:44.808Z,39.00
2022-09-27T05:28:48.614Z,40.00
2022-09-27T05:33:50.049Z,48.00
2022-09-27T05:43:52.178Z,32.90
2022-09-27T05:53:54.375Z,32.00
2022-09-27T05:58:56.669Z,37.00
2022-09-27T06:03:57.949Z,32.50
2022-09-27T06:14:01.587Z,32.70
2022-09-27T06:19:03.489Z,32.50
2022-09-27T06:24:05.132Z,28.90
2022-09-27T06:29:07.189Z,32.80
2022-09-27T06:34:09.375Z,28.50
2022-09-27T06:39:10.439Z,33.40
2022-09-27T06:44:13.721Z,32.40
2022-09-27T06:49:14.966Z,31.20
2022-09-27T06:54:16.171Z,33.60
2022-09-27T07:04:37.283Z,28.60
2022-09-27T07:09:39.530Z,28.90
2022-09-27T07:14:40.781Z,25.70
2022-09-27T07:19:49.126Z,31.40
2022-09-27T07:24:51.561Z,29.40
2022-09-27T07:29:54.337Z,24.40
2022-09-27T07:34:58.459Z,24.10
2022-09-27T07:40:08.842Z,19.90
2022-09-27T07:45:11.313Z,26.30
2022-09-27T07:50:12.422Z,29.60
2022-09-27T07:55:14.352Z,30.30
2022-09-27T08:00:19.096Z,31.00
2022-09-27T08:05:20.226Z,28.40
2022-09-27T08:10:21.356Z,32.40
2022-09-27T08:15:22.470Z,32.30
2022-09-27T08:20:23.728Z,29.00
2022-09-27T08:25:24.922Z,31.10
2022-09-27T08:30:27.812Z,31.70
2022-09-27T08:35:32.566Z,29.60
2022-09-27T08:40:53.799Z,35.30
2022-09-27T08:46:18.919Z,32.30
2022-09-27T08:51:25.060Z,32.10
2022-09-27T08:56:26.170Z,31.20
2022-09-27T09:01:29.164Z,27.90
2022-09-27T09:06:33.986Z,30.80
2022-09-27T09:11:59.793Z,24.00
2022-09-27T09:17:10.727Z,26.40
2022-09-27T09:22:28.075Z,26.10
2022-09-27T09:27:42.560Z,23.40
2022-09-27T09:33:16.028Z,23.00
2022-09-27T09:38:23.393Z,21.20
2022-09-27T09:43:41.171Z,21.00
2022-09-27T09:48:53.448Z,22.10
2022-09-27T09:54:03.325Z,20.30
2022-09-27T09:59:30.574Z,15.70
2022-09-27T10:04:33.286Z,12.30
2022-09-27T10:09:35.689Z,13.00
2022-09-27T10:14:37.031Z,12.70
2022-09-27T10:19:39.071Z,12.50
2022-09-27T10:25:06.526Z,13.60
2022-09-27T10:30:39.533Z,14.20
2022-09-27T10:35:46.222Z,13.60
2022-09-27T10:40:53.154Z,13.90
2022-09-27T10:46:03.484Z,16.80
2022-09-27T10:51:07.706Z,15.00
2022-09-27T10:56:26.988Z,20.40
2022-09-27T11:01:42.098Z,16.60
2022-09-27T11:06:43.510Z,13.20
2022-09-27T11:11:44.824Z,19.50
2022-09-27T11:16:59.598Z,16.30
2022-09-27T11:22:30.334Z,15.00
2022-09-27T11:33:24.445Z,12.70
2022-09-27T11:38:51.790Z,14.60
2022-09-27T11:44:21.573Z,14.20
2022-09-27T11:49:31.586Z,12.40
2022-09-27T11:54:41.685Z,16.90
2022-09-27T12:00:07.075Z,11.70
2022-09-27T12:05:51.827Z,12.50
2022-09-27T12:16:29.636Z,13.40
2022-09-27T12:21:32.505Z,13.00
2022-09-27T12:26:38.072Z,16.30
2022-09-27T12:32:05.279Z,15.70
2022-09-27T12:37:18.923Z,14.10
2022-09-27T12:42:25.089Z,14.00
2022-09-27T12:47:46.922Z,14.20
2022-09-27T12:52:52.304Z,19.10
2022-09-27T12:58:31.285Z,19.80
2022-09-27T13:03:42.839Z,16.30
2022-09-27T13:09:06.918Z,14.10
2022-09-27T13:14:38.773Z,16.70
2022-09-27T13:19:43.595Z,16.90
2022-09-27T13:24:46.595Z,14.80
2022-09-27T13:29:47.876Z,14.20
2022-09-27T13:34:55.787Z,13.80
2022-09-27T13:40:29.383Z,15.40
2022-09-27T13:45:56.760Z,17.20
2022-09-27T13:51:03.722Z,15.00
2022-09-27T13:56:06.505Z,16.20
2022-09-27T14:01:29.927Z,17.70
2022-09-27T14:06:41.405Z,17.50
2022-09-27T14:11:47.839Z,15.00
2022-09-27T14:16:49.239Z,18.60
2022-09-27T14:21:51.730Z,17.80
2022-09-27T14:27:30.549Z,18.00
2022-09-27T14:32:33.862Z,15.60
2022-09-27T14:37:35.583Z,17.40
2022-09-27T14:42:38.338Z,18.20
2022-09-27T14:47:45.784Z,18.60
2022-09-27T14:52:49.583Z,17.30
2022-09-27T14:57:58.458Z,19.10
2022-09-27T15:03:03.697Z,17.40
2022-09-27T15:08:07.463Z,16.70
2022-09-27T15:13:14.844Z,19.20
2022-09-27T15:18:38.967Z,14.00
2022-09-27T15:23:44.969Z,13.20
2022-09-27T15:28:51.437Z,12.30
2022-09-27T15:33:55.375Z,15.80
2022-09-27T15:39:11.219Z,15.80
2022-09-27T15:44:52.933Z,13.20
2022-09-27T15:49:54.126Z,17.40
2022-09-27T15:55:25.371Z,15.90
2022-09-27T16:00:28.745Z,15.60
2022-09-27T16:05:32.376Z,16.90
2022-09-27T16:10:44.737Z,17.30
2022-09-27T16:15:47.307Z,17.00
2022-09-27T16:20:49.148Z,15.20
2022-09-27T16:25:52.795Z,19.60
2022-09-27T16:31:01.167Z,17.80
2022-09-27T16:36:13.600Z,16.00
2022-09-27T16:41:15.225Z,17.80
2022-09-27T16:46:18.731Z,14.90
2022-09-27T16:51:39.670Z,15.10
2022-09-27T16:56:41.192Z,15.80
2022-09-27T17:01:44.756Z,14.90
2022-09-27T17:06:45.971Z,11.80
2022-09-27T17:11:47.631Z,16.80
2022-09-27T17:16:50.355Z,14.30
2022-09-27T17:21:51.449Z,15.20
2022-09-27T17:26:52.788Z,14.30
2022-09-27T17:31:53.952Z,13.00
2022-09-27T17:36:55.187Z,14.60
2022-09-27T17:41:57.724Z,14.60
2022-09-27T17:47:17.612Z,14.90
2022-09-27T17:52:18.671Z,17.00
2022-09-27T18:07:22.300Z,14.40
2022-09-27T18:12:31.001Z,16.10
2022-09-27T18:17:32.281Z,19.30
2022-09-27T18:22:34.396Z,18.20
2022-09-27T18:27:35.782Z,15.90
2022-09-27T18:32:37.045Z,21.20
2022-09-27T18:37:38.213Z,18.30
2022-09-27T18:42:44.294Z,18.90
2022-09-27T18:47:45.409Z,16.20
2022-09-27T18:57:47.614Z,13.60
2022-09-27T19:07:50.304Z,15.30
2022-09-27T19:12:55.917Z,14.40
2022-09-27T19:17:57.045Z,12.80
2022-09-27T19:22:58.594Z,13.80
2022-09-27T19:27:59.777Z,13.70
2022-09-27T19:33:03.199Z,16.70
2022-09-27T19:38:04.259Z,12.90
2022-09-27T19:48:07.391Z,12.90
2022-09-27T20:03:10.723Z,10.60
2022-09-27T20:08:12.180Z,13.90
2022-09-27T20:18:19.765Z,13.80
2022-09-27T20:23:24.244Z,11.20
2022-09-27T20:28:26.193Z,13.00
2022-09-27T20:33:46.925Z,10.10
2022-09-27T20:43:53.853Z,10.30
2022-09-27T20:49:02.073Z,11.30
2022-09-27T20:54:04.682Z,9.70
2022-09-27T20:59:14.859Z,10.20
2022-09-27T21:04:18.359Z,12.10
2022-09-27T21:09:19.852Z,11.90
2022-09-27T21:14:21.170Z,15.60
2022-09-27T21:19:22.418Z,12.90
2022-09-27T21:29:24.498Z,9.40
2022-09-27T21:34:26.117Z,11.00
2022-09-27T21:44:28.112Z,12.60
2022-09-27T21:49:30.024Z,14.10
2022-09-27T21:54:31.119Z,11.20
2022-09-27T22:04:33.115Z,13.10
2022-09-27T22:14:35.234Z,15.30
2022-09-27T22:24:37.411Z,14.10
2022-09-27T22:29:38.561Z,14.20
2022-09-27T22:34:39.627Z,14.40
2022-09-27T22:49:42.830Z,15.10
2022-09-27T22:54:44.155Z,13.10
2022-09-27T22:59:45.343Z,15.40
2022-09-27T23:04:47.915Z,14.90
2022-09-27T23:09:49.089Z,16.00
2022-09-27T23:14:50.322Z,15.90
2022-09-27T23:19:51.408Z,17.00
2022-09-27T23:29:53.575Z,18.90
2022-09-27T23:34:54.907Z,17.60
2022-09-27T23:39:56.715Z,17.20
2022-09-27T23:44:57.986Z,20.70
2022-09-27T23:49:59.053Z,18.40
2022-09-27T23:55:00.655Z,17.90
